Time;durP1;ratioP1;P1;durP2;ratioP2;P2;SDS_P1;SDS_P2;PMS_P1;PMS_P2;Temp;Humidity;BMP_temperature;BMP_pressure;BME280_temperature;BME280_humidity;BME280_pressure;Samples;Min_cycle;Max_cycle;Signal;HPM_P1;HPM_P2
2023/08/18 00:05:07;;;;;;;4.78;1.45;;;16.80;99.90;;;;;;5062704;28;20035;-84
2023/08/18 00:07:33;;;;;;;3.83;1.60;;;16.80;99.90;;;;;;5011097;28;20100;-84
2023/08/18 00:09:59;;;;;;;4.05;1.58;;;16.80;99.90;;;;;;5031856;28;20029;-83
2023/08/18 00:12:24;;;;;;;6.95;1.83;;;16.70;99.90;;;;;;5025362;28;20361;-84
2023/08/18 00:14:52;;;;;;;6.32;1.70;;;16.60;99.90;;;;;;5019812;28;20021;-86
2023/08/18 00:17:17;;;;;;;4.38;1.67;;;16.60;99.90;;;;;;5032656;28;20033;-84
2023/08/18 00:19:44;;;;;;;3.80;1.50;;;16.60;99.90;;;;;;5036681;28;20164;-85
2023/08/18 00:22:10;;;;;;;4.22;1.42;;;16.50;99.90;;;;;;5023268;28;20322;-85
2023/08/18 00:24:36;;;;;;;5.03;1.70;;;16.50;99.90;;;;;;5031438;28;20459;-85
2023/08/18 00:27:02;;;;;;;3.33;1.63;;;16.60;99.90;;;;;;5025946;28;20052;-85
2023/08/18 00:29:28;;;;;;;4.82;1.60;;;16.50;99.90;;;;;;5056087;28;20033;-84
2023/08/18 00:31:54;;;;;;;4.82;1.65;;;16.50;99.90;;;;;;5044082;28;20049;-84
2023/08/18 00:34:19;;;;;;;5.53;1.83;;;16.50;99.90;;;;;;5036930;28;20040;-84
2023/08/18 00:36:45;;;;;;;4.93;1.58;;;16.50;99.90;;;;;;5053119;28;20060;-84
2023/08/18 00:39:11;;;;;;;5.32;1.60;;;16.50;99.90;;;;;;5034916;28;20089;-85
2023/08/18 00:41:36;;;;;;;5.55;1.77;;;16.50;99.90;;;;;;5030428;28;20040;-84
2023/08/18 00:44:02;;;;;;;6.25;1.70;;;16.50;99.90;;;;;;5029580;28;20096;-84
2023/08/18 00:46:30;;;;;;;5.18;1.50;;;16.60;99.90;;;;;;5038269;28;20036;-84
2023/08/18 00:48:59;;;;;;;5.13;1.67;;;16.60;99.90;;;;;;5071225;28;20049;-84
2023/08/18 00:51:25;;;;;;;6.43;1.70;;;16.60;99.90;;;;;;5045178;28;20065;-84
2023/08/18 00:53:51;;;;;;;5.85;1.95;;;16.60;99.90;;;;;;5009851;28;20045;-85
2023/08/18 00:56:17;;;;;;;5.28;1.83;;;16.60;99.90;;;;;;5030181;28;20056;-85
2023/08/18 00:58:43;;;;;;;5.07;1.60;;;16.60;99.90;;;;;;5057876;28;20040;-84
2023/08/18 01:01:09;;;;;;;4.07;1.60;;;16.60;99.90;;;;;;5039559;28;20033;-85
2023/08/18 01:03:35;;;;;;;5.75;1.80;;;16.60;99.90;;;;;;5039777;28;20096;-84
2023/08/18 01:06:00;;;;;;;4.35;1.77;;;16.60;99.90;;;;;;5026970;28;20037;-84
2023/08/18 01:08:26;;;;;;;4.45;1.70;;;16.60;99.90;;;;;;5037338;28;20313;-85
2023/08/18 01:11:00;;;;;;;3.65;1.70;;;16.60;99.90;;;;;;5041031;28;20040;-84
2023/08/18 01:13:41;;;;;;;5.55;1.70;;;16.60;99.90;;;;;;5043875;28;20032;-85
2023/08/18 01:16:15;;;;;;;5.65;1.80;;;16.60;99.90;;;;;;5044573;28;20086;-84
2023/08/18 01:18:41;;;;;;;6.47;2.05;;;16.60;99.90;;;;;;5042152;28;20048;-85
2023/08/18 01:21:10;;;;;;;5.30;1.80;;;16.60;99.90;;;;;;5042646;28;20052;-84
2023/08/18 01:23:38;;;;;;;5.95;1.90;;;16.70;99.90;;;;;;5024698;28;20044;-85
2023/08/18 01:26:04;;;;;;;6.15;1.88;;;16.70;99.90;;;;;;5044346;28;20051;-85
2023/08/18 01:28:31;;;;;;;6.95;1.90;;;16.70;99.90;;;;;;5044896;28;20147;-84
2023/08/18 01:30:57;;;;;;;4.60;1.70;;;16.70;99.90;;;;;;5058622;28;20033;-84
2023/08/18 01:33:37;;;;;;;6.68;1.90;;;16.70;99.90;;;;;;5022689;28;20037;-84
2023/08/18 01:36:15;;;;;;;7.15;2.08;;;16.70;99.90;;;;;;5042473;28;20032;-84
2023/08/18 01:38:44;;;;;;;5.38;1.95;;;16.70;99.90;;;;;;5054226;28;20144;-84
2023/08/18 01:41:12;;;;;;;5.55;1.67;;;16.70;99.90;;;;;;5043983;28;20100;-84
2023/08/18 01:43:38;;;;;;;8.45;2.22;;;16.70;99.90;;;;;;5059199;28;20072;-85
2023/08/18 01:46:04;;;;;;;5.45;1.88;;;16.70;99.90;;;;;;5025810;28;20029;-84
2023/08/18 01:48:29;;;;;;;10.40;2.38;;;16.70;99.90;;;;;;5074797;28;20056;-84
2023/08/18 01:50:55;;;;;;;5.63;1.90;;;16.70;99.90;;;;;;5041789;28;20033;-84
2023/08/18 01:53:21;;;;;;;6.93;2.10;;;16.70;99.90;;;;;;5008805;28;20057;-84
2023/08/18 01:55:46;;;;;;;6.00;1.70;;;16.70;99.90;;;;;;5027535;28;20056;-84
2023/08/18 01:58:13;;;;;;;7.63;1.95;;;16.70;99.90;;;;;;5043179;28;20040;-84
2023/08/18 02:00:38;;;;;;;5.93;2.08;;;16.70;99.90;;;;;;5024576;28;20045;-85
2023/08/18 02:03:04;;;;;;;5.72;2.20;;;16.70;99.90;;;;;;5029596;28;20076;-84
2023/08/18 02:05:30;;;;;;;6.45;1.92;;;16.70;99.90;;;;;;5041410;28;20097;-85
2023/08/18 02:07:57;;;;;;;6.25;2.10;;;16.70;99.90;;;;;;5060000;28;20147;-84
2023/08/18 02:10:23;;;;;;;6.35;2.00;;;16.70;99.90;;;;;;5025800;28;20104;-84
2023/08/18 02:12:48;;;;;;;7.72;2.38;;;16.70;99.90;;;;;;5020423;28;20045;-85
2023/08/18 02:15:14;;;;;;;6.40;1.95;;;16.70;99.90;;;;;;5042367;28;20044;-85
2023/08/18 02:17:40;;;;;;;6.00;1.98;;;16.70;99.90;;;;;;5025834;28;20060;-84
2023/08/18 02:20:08;;;;;;;6.28;1.88;;;16.70;99.90;;;;;;5035753;28;20037;-85
2023/08/18 02:22:34;;;;;;;4.63;1.85;;;16.70;99.90;;;;;;5018643;28;20056;-84
2023/08/18 02:25:00;;;;;;;7.10;2.30;;;16.70;99.90;;;;;;5026537;28;20096;-85
2023/08/18 02:27:26;;;;;;;6.47;2.13;;;16.70;99.90;;;;;;5036566;28;20036;-84
2023/08/18 02:29:53;;;;;;;6.55;2.22;;;16.70;99.90;;;;;;5041670;28;20048;-84
2023/08/18 02:32:18;;;;;;;6.88;2.08;;;16.70;99.90;;;;;;5039994;28;20035;-85
2023/08/18 02:34:45;;;;;;;6.57;2.28;;;16.70;99.90;;;;;;5025919;28;20025;-84
2023/08/18 02:37:11;;;;;;;6.30;2.20;;;16.70;99.90;;;;;;5043294;28;20060;-84
2023/08/18 02:39:38;;;;;;;7.63;2.22;;;16.70;99.90;;;;;;5040775;28;20052;-85
2023/08/18 02:42:05;;;;;;;7.00;2.47;;;16.70;99.90;;;;;;5040592;28;20381;-85
2023/08/18 02:44:31;;;;;;;7.53;2.30;;;16.80;99.90;;;;;;5018650;28;20079;-84
2023/08/18 02:46:57;;;;;;;7.20;2.58;;;16.70;99.90;;;;;;5044095;28;21405;-84
2023/08/18 02:49:22;;;;;;;7.32;2.70;;;16.80;99.90;;;;;;5025877;28;20040;-84
2023/08/18 02:51:48;;;;;;;7.20;2.53;;;16.70;99.90;;;;;;5035455;28;20041;-84
2023/08/18 02:54:14;;;;;;;6.78;2.38;;;16.80;99.90;;;;;;5036069;28;20096;-84
2023/08/18 02:56:40;;;;;;;6.68;2.38;;;16.70;99.90;;;;;;5056476;28;20254;-84
2023/08/18 02:59:06;;;;;;;6.57;2.55;;;16.80;99.90;;;;;;5025350;28;20029;-85
2023/08/18 03:01:32;;;;;;;8.43;2.65;;;16.70;99.90;;;;;;5022834;28;20311;-85
2023/08/18 03:03:58;;;;;;;7.70;2.35;;;16.80;99.90;;;;;;5016037;28;20318;-84
2023/08/18 03:06:24;;;;;;;8.23;2.72;;;16.70;99.90;;;;;;5037325;28;20113;-83
2023/08/18 03:08:50;;;;;;;7.30;2.50;;;16.70;99.90;;;;;;5025540;28;20040;-83
2023/08/18 03:11:16;;;;;;;7.38;2.50;;;16.70;99.90;;;;;;5029598;28;20056;-84
2023/08/18 03:13:41;;;;;;;6.60;2.38;;;16.80;99.90;;;;;;5018651;28;20148;-84
2023/08/18 03:16:07;;;;;;;8.13;2.70;;;16.80;99.90;;;;;;5040408;28;20020;-84
2023/08/18 03:18:34;;;;;;;8.32;2.30;;;16.80;99.90;;;;;;5037208;28;20317;-84
2023/08/18 03:21:01;;;;;;;6.28;2.65;;;16.70;99.90;;;;;;5036295;28;20099;-84
2023/08/18 03:23:27;;;;;;;7.60;2.42;;;16.80;99.90;;;;;;5024300;28;20064;-84
2023/08/18 03:26:00;;;;;;;7.40;2.65;;;16.70;99.90;;;;;;5040172;28;20138;-84
2023/08/18 03:28:27;;;;;;;7.65;2.78;;;16.70;99.90;;;;;;5074676;28;20138;-84
2023/08/18 03:30:58;;;;;;;8.70;3.05;;;16.80;99.90;;;;;;5058746;28;20255;-83
2023/08/18 03:33:25;;;;;;;8.63;2.80;;;16.70;99.90;;;;;;5051574;28;20101;-84
2023/08/18 03:35:51;;;;;;;8.23;3.00;;;16.80;99.90;;;;;;5042022;28;20055;-84
2023/08/18 03:38:17;;;;;;;8.30;2.88;;;16.80;99.90;;;;;;5038184;28;20028;-84
2023/08/18 03:40:42;;;;;;;7.63;2.70;;;16.80;99.90;;;;;;5036359;28;20044;-84
2023/08/18 03:43:08;;;;;;;7.78;2.78;;;16.80;99.90;;;;;;5042430;28;20217;-84
2023/08/18 03:45:35;;;;;;;7.35;2.78;;;16.80;99.90;;;;;;5002290;28;20029;-84
2023/08/18 03:48:01;;;;;;;8.25;2.50;;;16.80;99.90;;;;;;5040931;28;20209;-84
2023/08/18 03:50:27;;;;;;;7.70;2.70;;;16.80;99.90;;;;;;5026749;28;20033;-84
2023/08/18 03:52:55;;;;;;;7.10;2.67;;;16.80;99.90;;;;;;5042015;28;20040;-84
2023/08/18 03:55:21;;;;;;;9.25;3.10;;;16.80;99.90;;;;;;5032389;28;20190;-84
2023/08/18 03:57:47;;;;;;;6.32;2.40;;;16.80;99.90;;;;;;5051527;28;20033;-84
2023/08/18 04:00:13;;;;;;;8.18;2.85;;;16.80;99.90;;;;;;5043793;28;20041;-84
2023/08/18 04:02:38;;;;;;;8.32;2.83;;;16.80;99.90;;;;;;5057877;28;20046;-84
2023/08/18 04:05:04;;;;;;;7.20;2.88;;;16.80;99.90;;;;;;5023598;28;20037;-84
2023/08/18 04:07:31;;;;;;;8.77;2.60;;;16.80;99.90;;;;;;5024024;28;20287;-84
2023/08/18 04:09:57;;;;;;;8.57;3.00;;;16.80;99.90;;;;;;5016364;28;20091;-84
2023/08/18 04:12:23;;;;;;;7.70;2.75;;;16.80;99.90;;;;;;5060217;28;20194;-84
2023/08/18 04:14:49;;;;;;;8.55;3.15;;;16.80;99.90;;;;;;5026956;28;20044;-84
2023/08/18 04:17:15;;;;;;;8.82;3.08;;;16.80;99.90;;;;;;5059344;28;20075;-84
2023/08/18 04:19:40;;;;;;;8.50;2.95;;;16.80;99.90;;;;;;5035401;28;20064;-85
2023/08/18 04:22:06;;;;;;;7.95;2.85;;;16.80;99.90;;;;;;5043028;28;20032;-84
2023/08/18 04:24:32;;;;;;;9.70;3.03;;;16.80;99.90;;;;;;5039764;28;20044;-85
2023/08/18 04:27:00;;;;;;;9.65;3.35;;;16.80;99.90;;;;;;5029073;28;20037;-83
2023/08/18 04:29:27;;;;;;;8.77;3.22;;;16.80;99.90;;;;;;5044639;28;20333;-84
2023/08/18 04:31:52;;;;;;;10.43;3.00;;;16.80;99.90;;;;;;5043713;28;20320;-84
2023/08/18 04:34:18;;;;;;;9.40;3.30;;;16.80;99.90;;;;;;5023067;28;20037;-84
2023/08/18 04:36:44;;;;;;;7.82;2.80;;;16.80;99.90;;;;;;5043925;28;20041;-84
2023/08/18 04:39:11;;;;;;;7.80;2.80;;;17.00;99.90;;;;;;5046314;28;20124;-84
2023/08/18 04:41:37;;;;;;;10.10;3.10;;;16.80;99.90;;;;;;5023653;28;20029;-84
2023/08/18 04:44:03;;;;;;;7.22;2.70;;;16.80;99.90;;;;;;5045005;28;20577;-85
2023/08/18 04:46:29;;;;;;;9.52;3.05;;;16.90;99.90;;;;;;5035148;28;20031;-85
2023/08/18 04:48:55;;;;;;;8.93;2.80;;;16.90;99.90;;;;;;5047012;28;20041;-85
2023/08/18 04:51:21;;;;;;;10.02;2.72;;;16.90;99.90;;;;;;5043415;28;20239;-84
2023/08/18 04:53:46;;;;;;;8.90;2.60;;;16.90;99.90;;;;;;5025662;28;20049;-85
2023/08/18 04:56:12;;;;;;;9.23;3.00;;;16.90;99.90;;;;;;5058211;28;20032;-85
2023/08/18 04:58:38;;;;;;;8.30;2.78;;;16.90;99.90;;;;;;5021607;28;20091;-84
2023/08/18 05:01:04;;;;;;;9.48;3.05;;;16.90;99.90;;;;;;5044250;28;20036;-84
2023/08/18 05:03:31;;;;;;;8.30;2.58;;;16.90;99.90;;;;;;5046802;28;20195;-84
2023/08/18 05:06:07;;;;;;;8.80;2.80;;;16.90;99.90;;;;;;5040659;28;20040;-84
2023/08/18 05:08:34;;;;;;;7.55;2.60;;;17.00;99.90;;;;;;5046947;28;20039;-84
2023/08/18 05:11:09;;;;;;;9.90;3.05;;;17.00;99.90;;;;;;5049645;28;20381;-84
2023/08/18 05:13:36;;;;;;;8.07;2.70;;;17.00;99.90;;;;;;5050197;28;20034;-84
2023/08/18 05:16:03;;;;;;;8.27;2.72;;;17.00;99.90;;;;;;5026998;28;20039;-85
2023/08/18 05:18:29;;;;;;;8.25;2.95;;;17.00;99.90;;;;;;5063067;28;20142;-84
2023/08/18 05:20:56;;;;;;;8.43;2.70;;;17.00;99.90;;;;;;5028748;28;20038;-85
2023/08/18 05:23:22;;;;;;;8.27;3.30;;;17.40;99.90;;;;;;5048306;28;20047;-85
2023/08/18 05:25:48;;;;;;;10.95;3.10;;;17.00;99.90;;;;;;5034945;28;20290;-85
2023/08/18 05:28:15;;;;;;;7.53;2.70;;;17.00;99.90;;;;;;5044829;28;20100;-83
2023/08/18 05:30:48;;;;;;;7.00;2.60;;;17.00;99.90;;;;;;5018235;28;20041;-84
2023/08/18 05:33:14;;;;;;;8.15;2.50;;;17.40;99.90;;;;;;5040920;28;20167;-84
2023/08/18 05:35:40;;;;;;;8.43;2.80;;;17.00;99.90;;;;;;5032944;28;20037;-85
2023/08/18 05:38:11;;;;;;;8.23;2.83;;;17.00;99.90;;;;;;5053236;28;20277;-84
2023/08/18 05:40:42;;;;;;;8.43;2.75;;;17.00;99.90;;;;;;5043256;28;20341;-84
2023/08/18 05:43:12;;;;;;;7.50;2.70;;;17.00;99.90;;;;;;5024451;28;20037;-84
2023/08/18 05:45:38;;;;;;;9.75;2.78;;;17.00;99.90;;;;;;5034196;28;20712;-84
2023/08/18 05:48:04;;;;;;;7.68;2.90;;;17.10;99.90;;;;;;5054948;28;20135;-84
2023/08/18 05:50:31;;;;;;;8.95;3.10;;;17.00;99.90;;;;;;5057633;28;20045;-84
2023/08/18 05:52:57;;;;;;;9.82;3.15;;;17.00;99.90;;;;;;5044989;28;20059;-84
2023/08/18 05:55:23;;;;;;;7.03;2.85;;;16.70;99.90;;;;;;5027079;28;20131;-84
2023/08/18 05:57:49;;;;;;;9.60;3.13;;;17.00;99.90;;;;;;5041275;28;20064;-84
2023/08/18 06:00:15;;;;;;;12.45;3.35;;;17.10;99.90;;;;;;5028113;28;20276;-84
2023/08/18 06:02:44;;;;;;;9.70;3.28;;;17.10;99.90;;;;;;5061548;28;20088;-84
2023/08/18 06:05:12;;;;;;;8.25;3.08;;;17.10;99.90;;;;;;5045901;28;20034;-84
2023/08/18 06:07:39;;;;;;;8.50;3.03;;;17.10;99.90;;;;;;5030261;28;20047;-84
2023/08/18 06:10:06;;;;;;;7.95;2.90;;;17.10;99.90;;;;;;5041220;28;20052;-84
2023/08/18 06:12:32;;;;;;;9.35;2.80;;;17.20;99.90;;;;;;5052923;28;20041;-84
2023/08/18 06:14:58;;;;;;;8.10;3.08;;;17.20;99.90;;;;;;5015564;28;20060;-83
2023/08/18 06:17:23;;;;;;;11.63;3.17;;;17.20;99.90;;;;;;5023075;28;20439;-83
2023/08/18 06:19:49;;;;;;;8.90;2.83;;;17.20;99.90;;;;;;5032825;28;20478;-84
2023/08/18 06:22:15;;;;;;;8.98;3.40;;;17.30;99.90;;;;;;5025443;28;20048;-83
2023/08/18 06:24:41;;;;;;;9.90;3.13;;;17.30;99.90;;;;;;5003474;28;20037;-84
2023/08/18 06:27:07;;;;;;;7.97;3.00;;;17.30;99.90;;;;;;5035526;28;20144;-83
2023/08/18 06:29:32;;;;;;;8.50;3.35;;;17.30;99.90;;;;;;5038311;28;20072;-83
2023/08/18 06:31:58;;;;;;;9.70;3.15;;;17.30;99.90;;;;;;5014321;28;20029;-83
2023/08/18 06:34:24;;;;;;;9.23;3.38;;;17.30;99.90;;;;;;5021204;28;20482;-83
2023/08/18 06:36:50;;;;;;;10.35;3.90;;;17.30;99.90;;;;;;5038054;28;20500;-83
2023/08/18 06:39:16;;;;;;;10.73;3.78;;;17.30;99.90;;;;;;5024655;28;20041;-83
2023/08/18 06:41:42;;;;;;;11.85;3.80;;;17.30;99.90;;;;;;5023586;28;20601;-83
2023/08/18 06:44:08;;;;;;;11.73;4.00;;;17.10;99.90;;;;;;5016194;28;20047;-83
2023/08/18 06:46:35;;;;;;;7.75;3.08;;;17.40;99.90;;;;;;5011313;28;20120;-84
2023/08/18 06:49:03;;;;;;;9.80;3.53;;;17.40;99.90;;;;;;5023414;28;20041;-84
2023/08/18 06:51:29;;;;;;;10.48;3.67;;;17.40;99.90;;;;;;5008917;28;20040;-84
2023/08/18 06:53:54;;;;;;;10.23;3.88;;;17.40;99.90;;;;;;5014244;28;20363;-83
2023/08/18 06:56:20;;;;;;;14.95;4.47;;;17.40;99.90;;;;;;5036901;28;20060;-83
2023/08/18 06:58:46;;;;;;;10.82;4.32;;;17.50;99.90;;;;;;5029048;28;20059;-83
2023/08/18 07:01:12;;;;;;;11.18;4.63;;;17.50;99.90;;;;;;5039289;28;20025;-82
2023/08/18 07:03:37;;;;;;;10.85;4.20;;;17.50;99.90;;;;;;5038535;28;20344;-83
2023/08/18 07:06:03;;;;;;;12.63;4.68;;;17.50;99.90;;;;;;5057954;28;20025;-83
2023/08/18 07:08:29;;;;;;;12.88;4.47;;;17.60;99.90;;;;;;5033244;28;20499;-84
2023/08/18 07:10:55;;;;;;;11.73;4.30;;;17.60;99.90;;;;;;5036558;28;20056;-83
2023/08/18 07:13:21;;;;;;;14.23;4.95;;;17.60;99.90;;;;;;5025840;28;20083;-83
2023/08/18 07:15:50;;;;;;;12.05;4.50;;;17.60;99.90;;;;;;5044851;28;20033;-84
2023/08/18 07:18:19;;;;;;;12.68;4.40;;;17.70;99.90;;;;;;5031909;28;20068;-84
2023/08/18 07:20:46;;;;;;;12.02;4.32;;;17.70;99.90;;;;;;5010632;28;20116;-84
2023/08/18 07:23:11;;;;;;;11.43;4.63;;;17.70;99.90;;;;;;5048840;28;20036;-84
2023/08/18 07:25:42;;;;;;;11.90;4.75;;;17.70;99.90;;;;;;5038018;28;20063;-83
2023/08/18 07:28:07;;;;;;;11.65;5.18;;;17.70;99.90;;;;;;5021689;28;20064;-82
2023/08/18 07:30:33;;;;;;;12.48;5.20;;;17.70;99.90;;;;;;5013670;28;20494;-82
2023/08/18 07:32:59;;;;;;;10.45;4.75;;;17.70;99.90;;;;;;5026177;28;20053;-82
2023/08/18 07:35:25;;;;;;;11.32;4.55;;;17.70;99.90;;;;;;5035083;28;20025;-82
2023/08/18 07:37:52;;;;;;;11.70;4.43;;;17.70;99.90;;;;;;5024759;28;20446;-83
2023/08/18 07:40:18;;;;;;;13.57;5.38;;;17.70;99.90;;;;;;5031204;28;20043;-83
2023/08/18 07:42:44;;;;;;;10.52;4.20;;;17.80;99.90;;;;;;5022483;28;20045;-82
2023/08/18 07:45:10;;;;;;;13.43;4.32;;;17.80;99.90;;;;;;5051000;28;20033;-83
2023/08/18 07:47:42;;;;;;;14.60;4.85;;;17.80;99.90;;;;;;5040083;28;20409;-84
2023/08/18 07:50:11;;;;;;;9.77;4.07;;;17.90;99.90;;;;;;5023743;28;20084;-83
2023/08/18 07:52:37;;;;;;;10.75;3.97;;;17.90;99.90;;;;;;5044134;28;20287;-83
2023/08/18 07:55:05;;;;;;;10.68;4.20;;;18.20;99.90;;;;;;5025019;28;20056;-81
2023/08/18 07:57:31;;;;;;;12.07;4.10;;;18.00;99.90;;;;;;5046821;28;20037;-82
2023/08/18 07:59:57;;;;;;;11.45;3.53;;;18.10;99.90;;;;;;5040391;28;20044;-82
2023/08/18 08:02:23;;;;;;;10.35;4.10;;;18.10;99.90;;;;;;5023720;28;20091;-83
2023/08/18 08:04:52;;;;;;;14.50;4.47;;;18.20;99.90;;;;;;5015258;28;20692;-82
2023/08/18 08:07:18;;;;;;;10.95;3.83;;;18.30;99.90;;;;;;5012405;28;20050;-82
2023/08/18 08:09:44;;;;;;;11.65;3.78;;;18.20;99.90;;;;;;5009837;28;20036;-83
2023/08/18 08:12:10;;;;;;;10.10;3.63;;;18.40;99.90;;;;;;5011824;28;20041;-84
2023/08/18 08:14:35;;;;;;;14.98;3.95;;;18.50;99.90;;;;;;5036062;28;20295;-84
2023/08/18 08:17:01;;;;;;;12.15;3.92;;;18.50;99.90;;;;;;5027163;28;20036;-84
2023/08/18 08:19:27;;;;;;;9.60;3.55;;;18.50;99.90;;;;;;5029549;28;20056;-84
2023/08/18 08:21:52;;;;;;;9.35;3.33;;;18.60;99.90;;;;;;5035700;28;20110;-85
2023/08/18 08:24:18;;;;;;;9.38;3.50;;;18.70;99.90;;;;;;5039796;28;20033;-84
2023/08/18 08:26:44;;;;;;;9.43;3.38;;;18.70;99.90;;;;;;5022444;28;20069;-84
2023/08/18 08:29:10;;;;;;;9.57;3.30;;;18.70;99.90;;;;;;5036943;28;20108;-84
2023/08/18 08:31:36;;;;;;;11.23;3.42;;;18.80;99.90;;;;;;5053829;28;20516;-83
2023/08/18 08:34:02;;;;;;;9.90;3.20;;;18.80;99.90;;;;;;5007028;28;20076;-83
2023/08/18 08:36:32;;;;;;;9.45;3.40;;;18.80;99.90;;;;;;4983404;28;20102;-83
2023/08/18 08:39:00;;;;;;;12.27;3.15;;;18.80;99.90;;;;;;5025714;28;20053;-83
2023/08/18 08:41:27;;;;;;;9.52;3.33;;;18.80;99.90;;;;;;5007725;28;20593;-82
2023/08/18 08:43:53;;;;;;;10.68;3.38;;;18.70;99.90;;;;;;5021699;28;20059;-83
2023/08/18 08:46:19;;;;;;;13.20;3.60;;;18.80;99.90;;;;;;5017902;28;20045;-83
2023/08/18 08:48:47;;;;;;;8.25;3.58;;;18.90;99.90;;;;;;5044104;28;20064;-83
2023/08/18 08:51:15;;;;;;;9.77;3.38;;;18.90;99.90;;;;;;5029440;28;20033;-82
2023/08/18 08:53:47;;;;;;;10.07;3.67;;;19.00;99.90;;;;;;5033814;28;20036;-83
2023/08/18 08:56:15;;;;;;;10.20;3.55;;;19.10;99.90;;;;;;5030525;28;20041;-83
2023/08/18 08:58:42;;;;;;;9.23;3.25;;;19.20;99.90;;;;;;5015644;28;20029;-80
2023/08/18 09:01:08;;;;;;;7.75;3.17;;;19.20;99.90;;;;;;5027513;28;20072;-80
2023/08/18 09:03:34;;;;;;;7.32;2.92;;;19.20;99.90;;;;;;5041094;28;20436;-81
2023/08/18 09:06:00;;;;;;;9.02;3.20;;;19.20;99.90;;;;;;5028901;28;20044;-80
2023/08/18 09:08:26;;;;;;;10.05;3.28;;;19.20;99.90;;;;;;5022620;28;20041;-80
2023/08/18 09:10:51;;;;;;;8.57;3.58;;;19.30;99.90;;;;;;5040704;28;20086;-80
2023/08/18 09:13:17;;;;;;;9.75;3.63;;;19.20;99.90;;;;;;5036037;28;20097;-80
2023/08/18 09:15:47;;;;;;;11.15;3.78;;;19.30;99.90;;;;;;5040681;28;20118;-80
2023/08/18 09:18:17;;;;;;;10.90;3.72;;;19.40;99.90;;;;;;5032729;28;20171;-80
2023/08/18 09:20:44;;;;;;;10.48;3.50;;;19.40;99.90;;;;;;5042535;28;20497;-80
2023/08/18 09:23:10;;;;;;;11.45;3.35;;;19.50;99.90;;;;;;5035775;28;20048;-80
2023/08/18 09:25:37;;;;;;;9.70;3.22;;;19.60;99.90;;;;;;5026197;28;20136;-80
2023/08/18 09:28:04;;;;;;;9.02;3.42;;;19.60;99.90;;;;;;5020849;28;20069;-81
2023/08/18 09:30:33;;;;;;;10.77;3.65;;;19.60;99.90;;;;;;5031298;28;20029;-80
2023/08/18 09:33:03;;;;;;;11.00;3.78;;;19.60;99.90;;;;;;5030809;28;20045;-80
2023/08/18 09:35:36;;;;;;;10.25;3.88;;;19.70;99.90;;;;;;5039152;28;20111;-80
2023/08/18 09:38:02;;;;;;;9.23;3.80;;;19.70;99.90;;;;;;5034316;28;20036;-80
2023/08/18 09:40:29;;;;;;;9.95;3.90;;;19.80;99.90;;;;;;5024933;28;20058;-80
2023/08/18 09:42:55;;;;;;;9.25;4.15;;;20.00;99.90;;;;;;5055387;28;20518;-80
2023/08/18 09:45:24;;;;;;;8.48;3.60;;;20.10;99.90;;;;;;5034114;28;20044;-80
2023/08/18 09:47:56;;;;;;;9.45;3.80;;;20.20;99.90;;;;;;5035551;28;20044;-81
2023/08/18 09:50:28;;;;;;;10.95;4.25;;;20.30;99.90;;;;;;5036807;28;20108;-81
2023/08/18 09:52:57;;;;;;;11.43;4.35;;;20.30;99.90;;;;;;5033435;28;20075;-81
2023/08/18 09:55:35;;;;;;;10.35;4.15;;;20.30;99.90;;;;;;5030877;28;20037;-81
2023/08/18 09:58:27;;;;;;;9.07;3.85;;;20.40;99.90;;;;;;5046886;28;20037;-82
2023/08/18 10:00:57;;;;;;;10.82;4.32;;;20.40;99.90;;;;;;5021946;28;20489;-80
2023/08/18 10:03:30;;;;;;;9.68;4.35;;;20.40;99.90;;;;;;5030485;28;20377;-80
2023/08/18 10:05:56;;;;;;;;;;;20.60;99.90;;;;;;5025499;28;20041;-79
2023/08/18 10:08:22;;;;;;;10.82;4.13;;;20.60;99.90;;;;;;5039564;28;19924;-81
2023/08/18 10:10:50;;;;;;;9.18;3.95;;;20.70;99.90;;;;;;5016926;28;20446;-81
2023/08/18 10:13:16;;;;;;;9.95;4.38;;;20.90;99.90;;;;;;5035522;28;21661;-81
2023/08/18 10:15:43;;;;;;;11.93;4.80;;;21.00;99.90;;;;;;5026732;28;20040;-81
2023/08/18 10:18:11;;;;;;;9.60;4.32;;;21.00;99.90;;;;;;5003487;28;20130;-80
2023/08/18 10:20:56;;;;;;;13.10;4.07;;;21.00;99.90;;;;;;5031685;28;20037;-82
2023/08/18 10:23:29;;;;;;;13.80;4.38;;;21.00;99.90;;;;;;5049820;28;20144;-80
2023/08/18 10:25:55;;;;;;;10.25;4.18;;;21.10;99.90;;;;;;5048876;28;20140;-81
2023/08/18 10:28:22;;;;;;;9.43;3.95;;;21.10;99.90;;;;;;5017337;28;20192;-81
2023/08/18 10:31:21;;;;;;;13.55;4.13;;;21.10;99.90;;;;;;5038298;28;20033;-81
2023/08/18 10:33:52;;;;;;;9.90;4.05;;;21.10;99.90;;;;;;5051015;28;20052;-81
2023/08/18 10:36:25;;;;;;;10.30;4.65;;;21.10;99.90;;;;;;5024372;28;20078;-80
2023/08/18 10:38:53;;;;;;;12.05;4.45;;;21.10;99.90;;;;;;5054508;28;20628;-81
2023/08/18 10:41:25;;;;;;;9.48;4.20;;;21.10;99.90;;;;;;5010696;28;20037;-81
2023/08/18 10:43:56;;;;;;;8.55;3.80;;;21.10;99.90;;;;;;5043289;28;20128;-80
2023/08/18 10:46:32;;;;;;;11.50;4.07;;;21.10;99.90;;;;;;5029868;28;20055;-83
2023/08/18 10:48:58;;;;;;;9.43;4.07;;;21.10;99.90;;;;;;5023517;28;20095;-84
2023/08/18 10:51:24;;;;;;;10.65;4.35;;;21.10;99.90;;;;;;4994949;28;20041;-84
2023/08/18 10:53:50;;;;;;;12.18;4.90;;;21.20;99.90;;;;;;5028735;28;21386;-83
2023/08/18 10:56:15;;;;;;;9.45;4.47;;;21.20;99.90;;;;;;5029607;28;20473;-83
2023/08/18 10:58:41;;;;;;;11.32;4.22;;;21.20;99.90;;;;;;5034113;28;20048;-84
2023/08/18 11:01:09;;;;;;;9.95;4.60;;;21.30;99.90;;;;;;5013428;28;20045;-84
2023/08/18 11:03:35;;;;;;;10.15;4.05;;;21.50;99.90;;;;;;5024900;28;20090;-84
2023/08/18 11:06:02;;;;;;;10.10;4.68;;;21.60;99.90;;;;;;5024747;28;20506;-83
2023/08/18 11:08:29;;;;;;;9.23;4.38;;;21.90;99.90;;;;;;5006388;28;20116;-84
2023/08/18 11:10:54;;;;;;;9.73;4.30;;;22.10;99.90;;;;;;5029971;28;20033;-85
2023/08/18 11:13:23;;;;;;;9.32;4.57;;;22.30;99.90;;;;;;5005492;28;20742;-85
2023/08/18 11:15:50;;;;;;;10.85;4.25;;;22.30;99.90;;;;;;5022046;28;20067;-86
2023/08/18 11:18:16;;;;;;;11.57;4.90;;;22.30;99.90;;;;;;5026394;28;20489;-85
2023/08/18 11:20:43;;;;;;;10.73;4.57;;;22.30;99.90;;;;;;5007096;28;20064;-86
2023/08/18 11:23:09;;;;;;;9.90;4.70;;;22.40;99.90;;;;;;5010349;28;20053;-88
2023/08/18 11:25:36;;;;;;;10.75;4.50;;;22.40;99.90;;;;;;5029965;28;20060;-88
2023/08/18 11:28:02;;;;;;;11.88;4.57;;;22.50;99.90;;;;;;5016207;28;20290;-87
2023/08/18 11:30:28;;;;;;;11.45;4.68;;;22.70;99.90;;;;;;5032451;28;20526;-87
2023/08/18 11:32:54;;;;;;;10.38;4.90;;;22.90;99.90;;;;;;5032305;28;20059;-87
2023/08/18 11:35:21;;;;;;;10.68;5.05;;;23.00;99.90;;;;;;5015175;28;20761;-88
2023/08/18 11:37:49;;;;;;;9.27;4.10;;;23.00;99.90;;;;;;5032306;28;20067;-87
2023/08/18 11:40:18;;;;;;;11.32;4.57;;;22.90;99.90;;;;;;5031437;28;20043;-86
2023/08/18 11:42:54;;;;;;;10.35;5.18;;;22.90;99.90;;;;;;5015551;28;20494;-87
2023/08/18 11:45:22;;;;;;;9.95;4.88;;;22.90;99.90;;;;;;5047901;28;20068;-87
2023/08/18 11:48:00;;;;;;;11.40;4.82;;;23.00;99.90;;;;;;5048527;28;20037;-87
2023/08/18 11:50:44;;;;;;;10.80;4.28;;;23.20;99.90;;;;;;5048020;28;20486;-87
2023/08/18 11:53:10;;;;;;;10.85;4.63;;;23.20;99.90;;;;;;5031540;28;20044;-86
2023/08/18 11:55:40;;;;;;;13.25;4.75;;;23.20;99.90;;;;;;5015476;28;20037;-88
2023/08/18 11:58:09;;;;;;;10.43;4.70;;;23.20;99.90;;;;;;5048596;28;20041;-88
2023/08/18 12:00:37;;;;;;;10.50;5.20;;;23.30;99.90;;;;;;5015670;28;20485;-87
2023/08/18 12:03:04;;;;;;;10.63;4.60;;;23.30;99.90;;;;;;5030890;28;20469;-86
2023/08/18 12:05:30;;;;;;;10.38;4.97;;;23.30;99.90;;;;;;5031266;28;20039;-87
2023/08/18 12:07:59;;;;;;;10.18;4.82;;;23.30;99.90;;;;;;5031500;28;20422;-86
2023/08/18 12:10:25;;;;;;;10.48;5.20;;;23.30;99.90;;;;;;5047719;28;20043;-86
2023/08/18 12:12:52;;;;;;;9.70;4.82;;;23.30;99.90;;;;;;5031316;28;20037;-87
2023/08/18 12:15:19;;;;;;;10.80;5.13;;;23.60;99.90;;;;;;5014744;28;20090;-87
2023/08/18 12:17:44;;;;;;;10.95;5.45;;;23.50;99.90;;;;;;5031327;28;20037;-87
2023/08/18 12:20:10;;;;;;;10.93;5.45;;;23.70;99.90;;;;;;5014999;28;20056;-88
2023/08/18 12:22:36;;;;;;;11.13;5.95;;;24.20;99.90;;;;;;5030769;28;20426;-89
2023/08/18 12:25:05;;;;;;;10.10;5.20;;;;;;;;;;5014784;28;20037;-89
2023/08/18 12:27:31;;;;;;;12.57;4.95;;;24.40;99.90;;;;;;5047752;28;20163;-88
2023/08/18 12:29:57;;;;;;;9.90;4.88;;;24.60;99.90;;;;;;5031402;28;20395;-87
2023/08/18 12:32:22;;;;;;;11.75;5.85;;;24.70;99.90;;;;;;4998515;28;20045;-87
2023/08/18 12:34:50;;;;;;;12.35;5.60;;;24.70;99.90;;;;;;4998681;28;20080;-87
2023/08/18 12:37:18;;;;;;;12.07;6.32;;;24.80;99.90;;;;;;5002689;28;20490;-87
2023/08/18 12:39:45;;;;;;;11.43;5.30;;;24.90;99.90;;;;;;5048578;28;20569;-88
2023/08/18 12:42:10;;;;;;;11.68;6.03;;;25.00;99.90;;;;;;5051457;28;20044;-87
2023/08/18 12:44:37;;;;;;;11.00;5.70;;;25.20;99.90;;;;;;5018377;28;20037;-87
2023/08/18 12:47:04;;;;;;;13.48;6.22;;;25.00;99.90;;;;;;5018463;28;20069;-87